Fraser, Michigan
Current Conditions -  °F | °C
As of 6:55 PM on Friday 31 Oct 2014 (Local Time) from KMTC Reporting Station
Light Rain Light Rain  
Wind Chill: 25°   Ceiling: 1300
Heat Index: 37°   Visibility: 10mi
Dew Point: 37°   Wind: 24mph
Humidity: 100%   Direction: 350°N
Pressure: 29.95"   Gusts: 33mph
Location:  42.54°N, 82.95°W
Report Text: KMTC 312255Z 35021G29KT 10SM -RA OVC013 03/03 A2995 RMK PK WND 34032/42 SLP155 T00270027
Loading
Personal Weather Stations






























Interactive Weather Map
Tropical Storm Tracking
New forecast layout! Learn more

10-Day Weather Forecast

Advertisements
Track Severe Weather on mobile